THY81J LTFM-LGAV
Flight info
| Callsign | THY81J |
|---|---|
| Flight time | 1h 0m |
| Altitude | 38000 |
| Route | IVGUS UY226 BIG UN604 OGSIL |
| Aircraft | A320/M-SDE3FGHIRWY/LB1 |
Departure
| Time | 2026-05-06 09:14 |
|---|---|
| Airport | İstanbul Airport (LTFM) |
Arrival
| Time | 2026-05-06 10:14 |
|---|---|
| Airport | Athens Eleftherios Venizelos International Airport (LGAV) |
| Time | Latitude | Longitude | Altitude | Speed | Heading |
|---|---|---|---|---|---|
| 2026-05-06 08:52 | 41.26308 | 28.73607 | 331 ft | 0 kts | 70° |
| 2026-05-06 09:06 | 41.26303 | 28.73589 | 334 ft | 4 kts | 72° |
| 2026-05-06 09:06 | 41.26295 | 28.73554 | 330 ft | 4 kts | 78° |
| 2026-05-06 09:06 | 41.26292 | 28.73519 | 331 ft | 4 kts | 96° |
| 2026-05-06 09:06 | 41.26300 | 28.73491 | 329 ft | 4 kts | 152° |
| 2026-05-06 09:07 | 41.26304 | 28.73488 | 331 ft | 0 kts | 161° |
| 2026-05-06 09:09 | 41.26302 | 28.73489 | 334 ft | 1 kts | 161° |
| 2026-05-06 09:10 | 41.26288 | 28.73495 | 333 ft | 3 kts | 160° |
| 2026-05-06 09:10 | 41.26258 | 28.73507 | 330 ft | 6 kts | 169° |
| 2026-05-06 09:10 | 41.26224 | 28.73482 | 334 ft | 7 kts | 240° |
| 2026-05-06 09:10 | 41.26221 | 28.73410 | 331 ft | 9 kts | 269° |
| 2026-05-06 09:11 | 41.26220 | 28.73319 | 331 ft | 10 kts | 269° |
| 2026-05-06 09:11 | 41.26218 | 28.73213 | 331 ft | 12 kts | 269° |
| 2026-05-06 09:11 | 41.26217 | 28.73089 | 332 ft | 15 kts | 269° |
| 2026-05-06 09:11 | 41.26215 | 28.72944 | 334 ft | 17 kts | 269° |
| 2026-05-06 09:12 | 41.26212 | 28.72778 | 334 ft | 19 kts | 269° |
| 2026-05-06 09:12 | 41.26211 | 28.72631 | 334 ft | 13 kts | 269° |
| 2026-05-06 09:12 | 41.26227 | 28.72530 | 331 ft | 10 kts | 324° |
| 2026-05-06 09:12 | 41.26291 | 28.72524 | 330 ft | 0 kts | 359° |
| 2026-05-06 09:13 | 41.26375 | 28.72523 | 331 ft | 43 kts | 359° |
| 2026-05-06 09:13 | 41.26907 | 28.72510 | 331 ft | 107 kts | 359° |
| 2026-05-06 09:13 | 41.27819 | 28.72493 | 333 ft | 153 kts | 360° |
| 2026-05-06 09:14 | 41.28930 | 28.72476 | 802 ft | 161 kts | 358° |
| 2026-05-06 09:14 | 41.30063 | 28.72445 | 1472 ft | 164 kts | 0° |
| 2026-05-06 09:14 | 41.31208 | 28.72445 | 2149 ft | 165 kts | 1° |
| 2026-05-06 09:14 | 41.32406 | 28.72483 | 2553 ft | 182 kts | 1° |
| 2026-05-06 09:15 | 41.33738 | 28.72506 | 2912 ft | 203 kts | 0° |
| 2026-05-06 09:15 | 41.35222 | 28.72518 | 3244 ft | 229 kts | 360° |
| 2026-05-06 09:15 | 41.36890 | 28.72409 | 3764 ft | 249 kts | 344° |
| 2026-05-06 09:15 | 41.38352 | 28.71150 | 4543 ft | 260 kts | 308° |
| 2026-05-06 09:16 | 41.38992 | 28.68917 | 5546 ft | 262 kts | 278° |
| 2026-05-06 09:16 | 41.38967 | 28.66465 | 6523 ft | 269 kts | 268° |
| 2026-05-06 09:16 | 41.38720 | 28.63954 | 7302 ft | 278 kts | 265° |
| 2026-05-06 09:16 | 41.38453 | 28.61388 | 8129 ft | 282 kts | 267° |
| 2026-05-06 09:17 | 41.38033 | 28.58811 | 8947 ft | 292 kts | 249° |
| 2026-05-06 09:17 | 41.36840 | 28.56622 | 9756 ft | 304 kts | 223° |
| 2026-05-06 09:17 | 41.34963 | 28.55246 | 10355 ft | 321 kts | 195° |
| 2026-05-06 09:17 | 41.32667 | 28.54897 | 10610 ft | 343 kts | 182° |
| 2026-05-06 09:18 | 41.30246 | 28.54887 | 11191 ft | 352 kts | 178° |
| 2026-05-06 09:18 | 41.27784 | 28.54998 | 11915 ft | 356 kts | 177° |
| 2026-05-06 09:18 | 41.25298 | 28.54955 | 12644 ft | 359 kts | 186° |
| 2026-05-06 09:18 | 41.22852 | 28.54243 | 13360 ft | 361 kts | 202° |
| 2026-05-06 09:19 | 41.20663 | 28.52627 | 14059 ft | 361 kts | 221° |
| 2026-05-06 09:19 | 41.18969 | 28.50187 | 14677 ft | 360 kts | 238° |
| 2026-05-06 09:19 | 41.17541 | 28.47445 | 15303 ft | 363 kts | 238° |
| 2026-05-06 09:19 | 41.16114 | 28.44661 | 15922 ft | 366 kts | 239° |
| 2026-05-06 09:20 | 41.14685 | 28.41853 | 16549 ft | 369 kts | 239° |
| 2026-05-06 09:20 | 41.13242 | 28.39019 | 17179 ft | 373 kts | 239° |
| 2026-05-06 09:20 | 41.11784 | 28.36158 | 17785 ft | 376 kts | 239° |
| 2026-05-06 09:20 | 41.10308 | 28.33271 | 18375 ft | 380 kts | 239° |
| 2026-05-06 09:21 | 41.08810 | 28.30358 | 18910 ft | 384 kts | 239° |
| 2026-05-06 09:21 | 41.07295 | 28.27428 | 19470 ft | 387 kts | 239° |
| 2026-05-06 09:21 | 41.05768 | 28.24477 | 20065 ft | 389 kts | 239° |
| 2026-05-06 09:21 | 41.04234 | 28.21510 | 20641 ft | 391 kts | 239° |
| 2026-05-06 09:22 | 41.02713 | 28.18570 | 21177 ft | 393 kts | 239° |
| 2026-05-06 09:22 | 41.01157 | 28.15564 | 21712 ft | 396 kts | 239° |
| 2026-05-06 09:22 | 40.99595 | 28.12555 | 22240 ft | 398 kts | 239° |
| 2026-05-06 09:22 | 40.98025 | 28.09529 | 22752 ft | 400 kts | 239° |
| 2026-05-06 09:23 | 40.96445 | 28.06486 | 23280 ft | 402 kts | 239° |
| 2026-05-06 09:23 | 40.94856 | 28.03426 | 23761 ft | 405 kts | 239° |
| 2026-05-06 09:23 | 40.93258 | 28.00350 | 24192 ft | 407 kts | 239° |
| 2026-05-06 09:23 | 40.91648 | 27.97252 | 24613 ft | 410 kts | 239° |
| 2026-05-06 09:24 | 40.90048 | 27.94177 | 25018 ft | 412 kts | 239° |
| 2026-05-06 09:24 | 40.88417 | 27.91045 | 25421 ft | 415 kts | 240° |
| 2026-05-06 09:24 | 40.86774 | 27.87897 | 25825 ft | 417 kts | 240° |
| 2026-05-06 09:24 | 40.85118 | 27.84737 | 26234 ft | 420 kts | 240° |
| 2026-05-06 09:25 | 40.83447 | 27.81553 | 26633 ft | 422 kts | 240° |
| 2026-05-06 09:25 | 40.81765 | 27.78357 | 27029 ft | 425 kts | 239° |
| 2026-05-06 09:25 | 40.79830 | 27.75351 | 27405 ft | 434 kts | 229° |
| 2026-05-06 09:25 | 40.77500 | 27.72776 | 27781 ft | 442 kts | 219° |
| 2026-05-06 09:26 | 40.74831 | 27.70682 | 28145 ft | 448 kts | 212° |
| 2026-05-06 09:26 | 40.72089 | 27.68709 | 28517 ft | 451 kts | 212° |
| 2026-05-06 09:26 | 40.69326 | 27.66723 | 28892 ft | 453 kts | 212° |
| 2026-05-06 09:26 | 40.66548 | 27.64727 | 29273 ft | 456 kts | 212° |
| 2026-05-06 09:27 | 40.63755 | 27.62722 | 29651 ft | 459 kts | 212° |
| 2026-05-06 09:27 | 40.60973 | 27.60728 | 30035 ft | 461 kts | 212° |
| 2026-05-06 09:27 | 40.58151 | 27.58700 | 30367 ft | 464 kts | 213° |
| 2026-05-06 09:27 | 40.55317 | 27.56653 | 30681 ft | 466 kts | 213° |
| 2026-05-06 09:28 | 40.52486 | 27.54560 | 30997 ft | 467 kts | 214° |
| 2026-05-06 09:28 | 40.49663 | 27.52433 | 31321 ft | 469 kts | 214° |
| 2026-05-06 09:28 | 40.46837 | 27.50291 | 31750 ft | 468 kts | 214° |
| 2026-05-06 09:28 | 40.44016 | 27.48156 | 32234 ft | 467 kts | 214° |
| 2026-05-06 09:29 | 40.41203 | 27.46043 | 32677 ft | 465 kts | 214° |
| 2026-05-06 09:29 | 40.38393 | 27.43945 | 33150 ft | 464 kts | 214° |
| 2026-05-06 09:29 | 40.35593 | 27.41861 | 33623 ft | 463 kts | 214° |
| 2026-05-06 09:29 | 40.32793 | 27.39788 | 34090 ft | 462 kts | 214° |
| 2026-05-06 09:30 | 40.29997 | 27.37717 | 34495 ft | 461 kts | 214° |
| 2026-05-06 09:30 | 40.27291 | 27.35511 | 34881 ft | 456 kts | 220° |
| 2026-05-06 09:30 | 40.24735 | 27.33139 | 35241 ft | 455 kts | 220° |
| 2026-05-06 09:30 | 40.22156 | 27.30748 | 35621 ft | 453 kts | 220° |
| 2026-05-06 09:31 | 40.19582 | 27.28369 | 35987 ft | 452 kts | 219° |
| 2026-05-06 09:31 | 40.17014 | 27.26001 | 36357 ft | 451 kts | 219° |
| 2026-05-06 09:31 | 40.14450 | 27.23641 | 36729 ft | 450 kts | 219° |
| 2026-05-06 09:31 | 40.11884 | 27.21284 | 37065 ft | 449 kts | 219° |
| 2026-05-06 09:32 | 40.09327 | 27.18937 | 37398 ft | 449 kts | 219° |
| 2026-05-06 09:32 | 40.06778 | 27.16595 | 37720 ft | 448 kts | 219° |
| 2026-05-06 09:32 | 40.04232 | 27.14256 | 38031 ft | 448 kts | 219° |
| 2026-05-06 09:33 | 39.99133 | 27.09578 | 38109 ft | 448 kts | 219° |
| 2026-05-06 09:33 | 39.94032 | 27.04907 | 38111 ft | 448 kts | 219° |
| 2026-05-06 09:34 | 39.88925 | 27.00251 | 38114 ft | 448 kts | 219° |
| 2026-05-06 09:34 | 39.83818 | 26.95595 | 38113 ft | 448 kts | 219° |
| 2026-05-06 09:35 | 39.78707 | 26.90945 | 38117 ft | 448 kts | 219° |
| 2026-05-06 09:35 | 39.73594 | 26.86297 | 38098 ft | 448 kts | 219° |
| 2026-05-06 09:36 | 39.68474 | 26.81659 | 38106 ft | 449 kts | 219° |
| 2026-05-06 09:36 | 39.63342 | 26.77026 | 38112 ft | 450 kts | 219° |
| 2026-05-06 09:37 | 39.58211 | 26.72391 | 38118 ft | 450 kts | 219° |
| 2026-05-06 09:37 | 39.53944 | 26.68541 | 38125 ft | 450 kts | 219° |
| 2026-05-06 09:38 | 39.47973 | 26.63164 | 38124 ft | 450 kts | 219° |
| 2026-05-06 09:38 | 39.42833 | 26.58545 | 38117 ft | 450 kts | 219° |
| 2026-05-06 09:39 | 39.38554 | 26.54712 | 38121 ft | 450 kts | 220° |
| 2026-05-06 09:39 | 39.33369 | 26.50095 | 38131 ft | 450 kts | 217° |
| 2026-05-06 09:40 | 39.27972 | 26.46043 | 38133 ft | 450 kts | 218° |
| 2026-05-06 09:40 | 39.25587 | 26.43519 | 38116 ft | 438 kts | 233° |
| 2026-05-06 09:40 | 39.21710 | 26.37518 | 38132 ft | 435 kts | 236° |
| 2026-05-06 09:41 | 39.17890 | 26.31464 | 38133 ft | 435 kts | 236° |
| 2026-05-06 09:41 | 39.14068 | 26.25426 | 38121 ft | 435 kts | 236° |
| 2026-05-06 09:42 | 39.10235 | 26.19405 | 38127 ft | 434 kts | 237° |
| 2026-05-06 09:42 | 39.06401 | 26.13389 | 38130 ft | 433 kts | 237° |
| 2026-05-06 09:43 | 39.02579 | 26.07387 | 38132 ft | 433 kts | 237° |
| 2026-05-06 09:43 | 38.98773 | 26.01432 | 38134 ft | 433 kts | 237° |
| 2026-05-06 09:44 | 38.94948 | 25.95464 | 38125 ft | 432 kts | 237° |
| 2026-05-06 09:44 | 38.91119 | 25.89505 | 38124 ft | 432 kts | 237° |
| 2026-05-06 09:45 | 38.87290 | 25.83562 | 38130 ft | 432 kts | 237° |
| 2026-05-06 09:45 | 38.83462 | 25.77626 | 38133 ft | 432 kts | 237° |
| 2026-05-06 09:46 | 38.79630 | 25.71692 | 38126 ft | 431 kts | 237° |
| 2026-05-06 09:46 | 38.75805 | 25.65765 | 38132 ft | 431 kts | 238° |
| 2026-05-06 09:47 | 38.71975 | 25.59850 | 38118 ft | 431 kts | 237° |
| 2026-05-06 09:47 | 38.68159 | 25.53983 | 38125 ft | 431 kts | 237° |
| 2026-05-06 09:48 | 38.64315 | 25.48085 | 38123 ft | 431 kts | 237° |
| 2026-05-06 09:48 | 38.60467 | 25.42186 | 38130 ft | 431 kts | 237° |
| 2026-05-06 09:49 | 38.56628 | 25.36300 | 38127 ft | 431 kts | 237° |
| 2026-05-06 09:49 | 38.52779 | 25.30415 | 37556 ft | 432 kts | 237° |
| 2026-05-06 09:50 | 38.50855 | 25.27476 | 36943 ft | 432 kts | 237° |
| 2026-05-06 09:50 | 38.48928 | 25.24532 | 36350 ft | 432 kts | 237° |
| 2026-05-06 09:50 | 38.46994 | 25.21577 | 35738 ft | 433 kts | 237° |
| 2026-05-06 09:50 | 38.45070 | 25.18647 | 35326 ft | 429 kts | 236° |
| 2026-05-06 09:51 | 38.43153 | 25.15738 | 34861 ft | 428 kts | 236° |
| 2026-05-06 09:51 | 38.41240 | 25.12839 | 34412 ft | 426 kts | 236° |
| 2026-05-06 09:51 | 38.39337 | 25.09955 | 33899 ft | 424 kts | 236° |
| 2026-05-06 09:51 | 38.37443 | 25.07084 | 33421 ft | 421 kts | 237° |
| 2026-05-06 09:52 | 38.35564 | 25.04239 | 32948 ft | 418 kts | 237° |
| 2026-05-06 09:52 | 38.33698 | 25.01418 | 32476 ft | 415 kts | 236° |
| 2026-05-06 09:52 | 38.31830 | 24.98633 | 32005 ft | 414 kts | 233° |
| 2026-05-06 09:52 | 38.29804 | 24.96022 | 31552 ft | 414 kts | 231° |
| 2026-05-06 09:53 | 38.27747 | 24.93458 | 31061 ft | 413 kts | 230° |
| 2026-05-06 09:53 | 38.25694 | 24.90907 | 30573 ft | 412 kts | 230° |
| 2026-05-06 09:53 | 38.23669 | 24.88393 | 30104 ft | 410 kts | 230° |
| 2026-05-06 09:53 | 38.21633 | 24.85867 | 29548 ft | 408 kts | 230° |
| 2026-05-06 09:54 | 38.19608 | 24.83354 | 29014 ft | 406 kts | 230° |
| 2026-05-06 09:54 | 38.17591 | 24.80849 | 28490 ft | 404 kts | 230° |
| 2026-05-06 09:54 | 38.15592 | 24.78353 | 28000 ft | 402 kts | 230° |
| 2026-05-06 09:54 | 38.13608 | 24.75872 | 27536 ft | 399 kts | 230° |
| 2026-05-06 09:55 | 38.11636 | 24.73404 | 27072 ft | 397 kts | 230° |
| 2026-05-06 09:55 | 38.09673 | 24.70946 | 26619 ft | 395 kts | 230° |
| 2026-05-06 09:55 | 38.07720 | 24.68500 | 26173 ft | 393 kts | 230° |
| 2026-05-06 09:55 | 38.05783 | 24.66072 | 25788 ft | 390 kts | 230° |
| 2026-05-06 09:56 | 38.03863 | 24.63667 | 25392 ft | 386 kts | 230° |
| 2026-05-06 09:56 | 38.01960 | 24.61285 | 25012 ft | 383 kts | 230° |
| 2026-05-06 09:56 | 38.00070 | 24.58919 | 24618 ft | 380 kts | 230° |
| 2026-05-06 09:56 | 37.98193 | 24.56569 | 24170 ft | 379 kts | 230° |
| 2026-05-06 09:57 | 37.96321 | 24.54223 | 23725 ft | 378 kts | 230° |
| 2026-05-06 09:57 | 37.94456 | 24.51881 | 23186 ft | 377 kts | 230° |
| 2026-05-06 09:57 | 37.92621 | 24.49569 | 22658 ft | 376 kts | 230° |
| 2026-05-06 09:57 | 37.90773 | 24.47229 | 22128 ft | 375 kts | 230° |
| 2026-05-06 09:58 | 37.88937 | 24.44894 | 21616 ft | 373 kts | 230° |
| 2026-05-06 09:58 | 37.87113 | 24.42564 | 21109 ft | 372 kts | 230° |
| 2026-05-06 09:58 | 37.85301 | 24.40240 | 20608 ft | 370 kts | 230° |
| 2026-05-06 09:58 | 37.83499 | 24.37926 | 20111 ft | 368 kts | 230° |
| 2026-05-06 09:59 | 37.81700 | 24.35629 | 19656 ft | 366 kts | 230° |
| 2026-05-06 09:59 | 37.79917 | 24.33357 | 19235 ft | 363 kts | 230° |
| 2026-05-06 09:59 | 37.78146 | 24.31101 | 18818 ft | 360 kts | 230° |
| 2026-05-06 09:59 | 37.76390 | 24.28868 | 18412 ft | 357 kts | 230° |
| 2026-05-06 10:00 | 37.74655 | 24.26662 | 18007 ft | 352 kts | 230° |
| 2026-05-06 10:00 | 37.72942 | 24.24480 | 17607 ft | 347 kts | 230° |
| 2026-05-06 10:00 | 37.71261 | 24.22326 | 17217 ft | 338 kts | 230° |
| 2026-05-06 10:00 | 37.69634 | 24.20234 | 16834 ft | 332 kts | 230° |
| 2026-05-06 10:01 | 37.68028 | 24.18153 | 16442 ft | 329 kts | 230° |
| 2026-05-06 10:01 | 37.66440 | 24.16080 | 16093 ft | 327 kts | 230° |
| 2026-05-06 10:01 | 37.64865 | 24.14008 | 15802 ft | 327 kts | 230° |
| 2026-05-06 10:01 | 37.63322 | 24.11964 | 15510 ft | 325 kts | 230° |
| 2026-05-06 10:02 | 37.61775 | 24.09900 | 15215 ft | 323 kts | 230° |
| 2026-05-06 10:02 | 37.60244 | 24.07846 | 14876 ft | 320 kts | 230° |
| 2026-05-06 10:02 | 37.58957 | 24.05607 | 14530 ft | 312 kts | 249° |
| 2026-05-06 10:02 | 37.58496 | 24.02995 | 14179 ft | 304 kts | 274° |
| 2026-05-06 10:03 | 37.58795 | 24.00385 | 13790 ft | 301 kts | 284° |
| 2026-05-06 10:03 | 37.59265 | 23.97812 | 13379 ft | 300 kts | 285° |
| 2026-05-06 10:03 | 37.59490 | 23.95203 | 12995 ft | 301 kts | 269° |
| 2026-05-06 10:03 | 37.59293 | 23.92569 | 12621 ft | 301 kts | 265° |
| 2026-05-06 10:04 | 37.59054 | 23.89959 | 12266 ft | 299 kts | 265° |
| 2026-05-06 10:04 | 37.58818 | 23.87381 | 12217 ft | 286 kts | 265° |
| 2026-05-06 10:04 | 37.58585 | 23.84835 | 11989 ft | 299 kts | 265° |
| 2026-05-06 10:04 | 37.58350 | 23.82225 | 11464 ft | 302 kts | 265° |
| 2026-05-06 10:05 | 37.58116 | 23.79532 | 10776 ft | 312 kts | 265° |
| 2026-05-06 10:05 | 37.57891 | 23.76830 | 10226 ft | 316 kts | 265° |
| 2026-05-06 10:05 | 37.57792 | 23.74060 | 9639 ft | 317 kts | 277° |
| 2026-05-06 10:05 | 37.58461 | 23.71426 | 9039 ft | 319 kts | 300° |
| 2026-05-06 10:06 | 37.59684 | 23.69101 | 8443 ft | 315 kts | 305° |
| 2026-05-06 10:06 | 37.60973 | 23.66933 | 7869 ft | 305 kts | 313° |
| 2026-05-06 10:06 | 37.62684 | 23.65447 | 7299 ft | 297 kts | 338° |
| 2026-05-06 10:06 | 37.64698 | 23.65153 | 6740 ft | 292 kts | 9° |
| 2026-05-06 10:07 | 37.66498 | 23.66243 | 6166 ft | 289 kts | 43° |
| 2026-05-06 10:07 | 37.67545 | 23.68295 | 6020 ft | 268 kts | 64° |
| 2026-05-06 10:07 | 37.68533 | 23.70153 | 5871 ft | 247 kts | 37° |
| 2026-05-06 10:07 | 37.70004 | 23.71113 | 5595 ft | 232 kts | 22° |
| 2026-05-06 10:08 | 37.71358 | 23.72146 | 5310 ft | 224 kts | 36° |
| 2026-05-06 10:08 | 37.72574 | 23.73327 | 5014 ft | 217 kts | 36° |
| 2026-05-06 10:08 | 37.73758 | 23.74465 | 4737 ft | 210 kts | 36° |
| 2026-05-06 10:08 | 37.74908 | 23.75555 | 4464 ft | 205 kts | 35° |
| 2026-05-06 10:09 | 37.76043 | 23.76627 | 4195 ft | 201 kts | 34° |
| 2026-05-06 10:09 | 37.77132 | 23.77657 | 3946 ft | 189 kts | 34° |
| 2026-05-06 10:09 | 37.78142 | 23.78612 | 3693 ft | 178 kts | 34° |
| 2026-05-06 10:09 | 37.79095 | 23.79513 | 3462 ft | 165 kts | 34° |
| 2026-05-06 10:10 | 37.79986 | 23.80357 | 3252 ft | 157 kts | 33° |
| 2026-05-06 10:10 | 37.80855 | 23.81178 | 3046 ft | 155 kts | 34° |
| 2026-05-06 10:10 | 37.81719 | 23.81995 | 2848 ft | 154 kts | 34° |
| 2026-05-06 10:10 | 37.82578 | 23.82808 | 2654 ft | 155 kts | 34° |
| 2026-05-06 10:11 | 37.83439 | 23.83623 | 2452 ft | 153 kts | 35° |
| 2026-05-06 10:11 | 37.84278 | 23.84418 | 2241 ft | 149 kts | 35° |
| 2026-05-06 10:11 | 37.85103 | 23.85200 | 2047 ft | 148 kts | 36° |
| 2026-05-06 10:11 | 37.85924 | 23.85978 | 1853 ft | 146 kts | 37° |
| 2026-05-06 10:12 | 37.86741 | 23.86752 | 1658 ft | 147 kts | 37° |
| 2026-05-06 10:12 | 37.87557 | 23.87526 | 1448 ft | 147 kts | 37° |
| 2026-05-06 10:12 | 37.88377 | 23.88304 | 1255 ft | 147 kts | 38° |
| 2026-05-06 10:12 | 37.89191 | 23.89081 | 1090 ft | 146 kts | 38° |
| 2026-05-06 10:13 | 37.89988 | 23.89847 | 851 ft | 142 kts | 39° |
| 2026-05-06 10:13 | 37.90776 | 23.90589 | 686 ft | 141 kts | 39° |
| 2026-05-06 10:13 | 37.91540 | 23.91315 | 482 ft | 138 kts | 41° |
| 2026-05-06 10:13 | 37.92305 | 23.92055 | 351 ft | 138 kts | 36° |
| 2026-05-06 10:14 | 37.93026 | 23.92724 | 295 ft | 111 kts | 34° |
| 2026-05-06 10:14 | 37.93462 | 23.93147 | 293 ft | 34 kts | 34° |
| 2026-05-06 10:14 | 37.93591 | 23.93345 | 294 ft | 26 kts | 58° |
| 2026-05-06 10:14 | 37.93622 | 23.93468 | 296 ft | 10 kts | 90° |
| 2026-05-06 10:15 | 37.93578 | 23.93518 | 300 ft | 9 kts | 173° |
| 2026-05-06 10:15 | 37.93536 | 23.93502 | 299 ft | 7 kts | 214° |
| 2026-05-06 10:15 | 37.93491 | 23.93454 | 301 ft | 10 kts | 220° |
| 2026-05-06 10:15 | 37.93424 | 23.93444 | 299 ft | 11 kts | 134° |
| 2026-05-06 10:16 | 37.93376 | 23.93530 | 301 ft | 13 kts | 125° |
| 2026-05-06 10:16 | 37.93319 | 23.93634 | 302 ft | 16 kts | 127° |
| 2026-05-06 10:16 | 37.93247 | 23.93753 | 302 ft | 18 kts | 129° |
| 2026-05-06 10:16 | 37.93163 | 23.93889 | 301 ft | 21 kts | 126° |
| 2026-05-06 10:17 | 37.93069 | 23.94042 | 301 ft | 23 kts | 128° |
| 2026-05-06 10:17 | 37.92968 | 23.94214 | 302 ft | 23 kts | 126° |
| 2026-05-06 10:17 | 37.92896 | 23.94334 | 304 ft | 12 kts | 127° |
| 2026-05-06 10:17 | 37.92888 | 23.94412 | 301 ft | 9 kts | 58° |
| 2026-05-06 10:18 | 37.92947 | 23.94472 | 301 ft | 12 kts | 34° |
| 2026-05-06 10:18 | 37.93027 | 23.94544 | 302 ft | 16 kts | 37° |
| 2026-05-06 10:18 | 37.93134 | 23.94593 | 301 ft | 18 kts | 1° |
| 2026-05-06 10:18 | 37.93240 | 23.94619 | 302 ft | 15 kts | 32° |
| 2026-05-06 10:19 | 37.93332 | 23.94704 | 301 ft | 18 kts | 37° |
| 2026-05-06 10:19 | 37.93367 | 23.94721 | 302 ft | 4 kts | 343° |
| 2026-05-06 10:19 | 37.93391 | 23.94687 | 302 ft | 6 kts | 308° |
| 2026-05-06 10:19 | 37.93408 | 23.94658 | 302 ft | 1 kts | 308° |
| 2026-05-06 10:20 | 37.93412 | 23.94653 | 302 ft | 0 kts | 307° |